Almeria, NE

2:53 PM CST on March 03, 2015 (GMT -0600)
APRSWXNET Sargent NE US | Change Station
CLOSE
Current Station
Personal Weather Station
Location: Sargent, NE
Elevation: 2340 ft
Nearby Weather Stations

Elev 2340 ft 41.64 °N, 99.38 °W | Updated 21 minutes ago

Overcast
Overcast
28 °F
Feels Like 20 °F
N
8
Wind Variable Wind from NW
Gusts 17.0 mph

Today
High -- | Low -- °F
--% Chance of Precip.
Yesterday
High -- | Low -- °F
Precip. -- in
7:09 AM 6:30 PM
Waxing Gibbous, 97% visible
Pressure 30.01 in
Visibility 10.0 miles
Clouds Clear
Windchill 20 °F
Dew Point 9 °F
Humidity 44%
Rainfall 0.00 in
Snow Depth Not available.
UV 5 out of 12
Pollen 1.20 out of 12
Air Quality Not available.
Flu Activity Not available.
METAR KODX 031953Z AUTO 34022G32KT 10SM CLR M02/M14 A2993 RMK AO2 PK WND 34033/1937 SLP160 T10171139

More Conditions Fewer Conditions

Pressure 30.01 in
Visibility 10.0 miles
Clouds Clear
Windchill 20 °F
Dew Point 9 °F
Humidity 44%
Rainfall 0.00 in
Snow Depth Not available.
UV 5 out of 12
Pollen 1.20 out of 12
Air Quality Not available.
Flu Activity Not available.
METAR KODX 031953Z AUTO 34022G32KT 10SM CLR M02/M14 A2993 RMK AO2 PK WND 34033/1937 SLP160 T10171139

More Conditions Fewer Conditions

10-Day Weather Forecast

Almanac

Astronomy

Mar. 03, 2015 Rise Set
Actual Time
Civil Twilight
Nautical Twilight
Astronomical Twilight
Moon
Length of Visible Light
Length of Day
Tomorrow will be .
, % of the Moon is Illuminated

Today's Extremes

State Highs State Lows

Community

WunderPhotos

Upload Photos

1,802,246 photos uploaded!

WunderBlogs® & News

Nearby

Air Quality

  Air Quality AQ Index Pollutant
Not available.

Snow Depth

Station Depth Elevation

Earthquake Activity

City Distance Mag. Time & Date
Minimum magnitude displayed is 2.5.

Coastal Water Temperatures

Place Temperature

Nearby Weather Stations